Terminal Aerodrome Forecast
Issued by NWS Caribou, ME

Home | Current Version | Previous Version | Text Only | Print | Product List | Glossary On
Versions: 1 2 3 4 5 6 7 8 9 10 11 12 13 14 15 16
000
FTUS41 KCAR 281120
TAFCAR
TAF
KCAR 281120Z 2812/2912 00000KT 3SM -SHRA BR OVC035
     FM281500 25005KT 3SM BR OVC040
     FM281900 27007KT 3SM -SHRA OVC070
     FM282000 28007KT 6SM BR OVC060
     FM290000 27004KT P6SM OVC070=

USA.gov is the U.S. government's official web portal to all federal, state and local government web resources and services.